sensor_id;sensor_type;location;lat;lon;timestamp;P1;durP1;ratioP1;P2;durP2;ratioP2
16766;SDS011;8501;49.926;8.404;2023-04-03T00:02:10;5.90;;;3.47;;
16766;SDS011;8501;49.926;8.404;2023-04-03T00:04:36;4.80;;;3.10;;
16766;SDS011;8501;49.926;8.404;2023-04-03T00:07:02;4.33;;;3.30;;
16766;SDS011;8501;49.926;8.404;2023-04-03T00:09:27;5.10;;;3.37;;
16766;SDS011;8501;49.926;8.404;2023-04-03T00:11:53;4.27;;;3.50;;
16766;SDS011;8501;49.926;8.404;2023-04-03T00:14:19;5.40;;;3.33;;
16766;SDS011;8501;49.926;8.404;2023-04-03T00:16:44;4.83;;;3.10;;
16766;SDS011;8501;49.926;8.404;2023-04-03T00:19:10;4.80;;;3.07;;
16766;SDS011;8501;49.926;8.404;2023-04-03T00:21:36;5.17;;;3.30;;
16766;SDS011;8501;49.926;8.404;2023-04-03T00:24:02;4.90;;;3.93;;
16766;SDS011;8501;49.926;8.404;2023-04-03T00:26:28;4.63;;;3.33;;
16766;SDS011;8501;49.926;8.404;2023-04-03T00:28:53;3.70;;;2.57;;
16766;SDS011;8501;49.926;8.404;2023-04-03T00:31:19;5.13;;;2.90;;
16766;SDS011;8501;49.926;8.404;2023-04-03T00:33:45;5.80;;;3.00;;
16766;SDS011;8501;49.926;8.404;2023-04-03T00:36:10;3.87;;;2.83;;
16766;SDS011;8501;49.926;8.404;2023-04-03T00:38:37;5.07;;;3.33;;
16766;SDS011;8501;49.926;8.404;2023-04-03T00:41:03;4.80;;;2.63;;
16766;SDS011;8501;49.926;8.404;2023-04-03T00:43:29;3.97;;;2.63;;
16766;SDS011;8501;49.926;8.404;2023-04-03T00:45:55;4.23;;;2.43;;
16766;SDS011;8501;49.926;8.404;2023-04-03T00:48:23;3.17;;;2.60;;
16766;SDS011;8501;49.926;8.404;2023-04-03T00:50:56;4.90;;;2.83;;
16766;SDS011;8501;49.926;8.404;2023-04-03T00:53:23;3.77;;;2.80;;
16766;SDS011;8501;49.926;8.404;2023-04-03T00:55:54;5.23;;;2.60;;
16766;SDS011;8501;49.926;8.404;2023-04-03T00:58:21;4.57;;;2.40;;
16766;SDS011;8501;49.926;8.404;2023-04-03T01:00:57;4.53;;;2.57;;
16766;SDS011;8501;49.926;8.404;2023-04-03T01:03:23;3.70;;;2.60;;
16766;SDS011;8501;49.926;8.404;2023-04-03T01:05:50;4.20;;;2.83;;
16766;SDS011;8501;49.926;8.404;2023-04-03T01:08:16;6.70;;;3.07;;
16766;SDS011;8501;49.926;8.404;2023-04-03T01:10:42;5.00;;;3.17;;
16766;SDS011;8501;49.926;8.404;2023-04-03T01:13:22;5.23;;;3.40;;
16766;SDS011;8501;49.926;8.404;2023-04-03T01:15:52;5.87;;;3.20;;
16766;SDS011;8501;49.926;8.404;2023-04-03T01:18:18;4.87;;;3.00;;
16766;SDS011;8501;49.926;8.404;2023-04-03T01:20:49;5.63;;;3.47;;
16766;SDS011;8501;49.926;8.404;2023-04-03T01:23:23;5.43;;;3.33;;
16766;SDS011;8501;49.926;8.404;2023-04-03T01:25:55;5.07;;;3.03;;
16766;SDS011;8501;49.926;8.404;2023-04-03T01:28:32;6.17;;;3.77;;
16766;SDS011;8501;49.926;8.404;2023-04-03T01:33:41;4.63;;;3.20;;
16766;SDS011;8501;49.926;8.404;2023-04-03T01:36:09;5.60;;;3.17;;
16766;SDS011;8501;49.926;8.404;2023-04-03T01:38:38;4.77;;;3.10;;
16766;SDS011;8501;49.926;8.404;2023-04-03T01:41:04;4.50;;;2.87;;
16766;SDS011;8501;49.926;8.404;2023-04-03T01:43:31;6.53;;;3.53;;
16766;SDS011;8501;49.926;8.404;2023-04-03T01:45:56;7.03;;;4.37;;
16766;SDS011;8501;49.926;8.404;2023-04-03T01:48:22;9.53;;;4.27;;
16766;SDS011;8501;49.926;8.404;2023-04-03T01:50:47;5.53;;;3.60;;
16766;SDS011;8501;49.926;8.404;2023-04-03T01:53:13;6.37;;;3.60;;
16766;SDS011;8501;49.926;8.404;2023-04-03T01:55:39;6.00;;;3.50;;
16766;SDS011;8501;49.926;8.404;2023-04-03T01:58:04;5.97;;;3.50;;
16766;SDS011;8501;49.926;8.404;2023-04-03T02:00:30;5.47;;;2.90;;
16766;SDS011;8501;49.926;8.404;2023-04-03T02:02:55;5.90;;;3.17;;
16766;SDS011;8501;49.926;8.404;2023-04-03T02:05:21;4.70;;;2.73;;
16766;SDS011;8501;49.926;8.404;2023-04-03T02:07:47;5.60;;;3.10;;
16766;SDS011;8501;49.926;8.404;2023-04-03T02:10:13;5.83;;;3.03;;
16766;SDS011;8501;49.926;8.404;2023-04-03T02:12:39;6.07;;;3.57;;
16766;SDS011;8501;49.926;8.404;2023-04-03T02:15:05;5.47;;;3.47;;
16766;SDS011;8501;49.926;8.404;2023-04-03T02:17:31;5.73;;;3.10;;
16766;SDS011;8501;49.926;8.404;2023-04-03T02:19:57;4.17;;;3.20;;
16766;SDS011;8501;49.926;8.404;2023-04-03T02:22:23;5.37;;;3.00;;
16766;SDS011;8501;49.926;8.404;2023-04-03T02:24:48;5.60;;;2.60;;
16766;SDS011;8501;49.926;8.404;2023-04-03T02:27:14;13.57;;;3.03;;
16766;SDS011;8501;49.926;8.404;2023-04-03T02:29:40;3.33;;;2.50;;
16766;SDS011;8501;49.926;8.404;2023-04-03T02:32:06;4.43;;;2.60;;
16766;SDS011;8501;49.926;8.404;2023-04-03T02:34:31;3.57;;;2.60;;
16766;SDS011;8501;49.926;8.404;2023-04-03T02:36:57;5.30;;;2.27;;
16766;SDS011;8501;49.926;8.404;2023-04-03T02:39:22;6.30;;;2.67;;
16766;SDS011;8501;49.926;8.404;2023-04-03T02:41:49;4.30;;;2.57;;
16766;SDS011;8501;49.926;8.404;2023-04-03T02:44:15;4.40;;;2.50;;
16766;SDS011;8501;49.926;8.404;2023-04-03T02:46:40;4.63;;;2.50;;
16766;SDS011;8501;49.926;8.404;2023-04-03T02:49:06;4.13;;;2.80;;
16766;SDS011;8501;49.926;8.404;2023-04-03T02:51:32;4.40;;;2.80;;
16766;SDS011;8501;49.926;8.404;2023-04-03T02:53:57;5.00;;;2.53;;
16766;SDS011;8501;49.926;8.404;2023-04-03T02:56:23;5.77;;;2.90;;
16766;SDS011;8501;49.926;8.404;2023-04-03T02:58:49;4.03;;;2.87;;
16766;SDS011;8501;49.926;8.404;2023-04-03T03:01:15;5.57;;;2.70;;
16766;SDS011;8501;49.926;8.404;2023-04-03T03:03:40;4.30;;;2.93;;
16766;SDS011;8501;49.926;8.404;2023-04-03T03:06:09;3.43;;;2.63;;
16766;SDS011;8501;49.926;8.404;2023-04-03T03:08:37;3.70;;;2.40;;
16766;SDS011;8501;49.926;8.404;2023-04-03T03:11:03;3.77;;;2.27;;
16766;SDS011;8501;49.926;8.404;2023-04-03T03:13:29;3.73;;;2.10;;
16766;SDS011;8501;49.926;8.404;2023-04-03T03:15:55;3.23;;;2.33;;
16766;SDS011;8501;49.926;8.404;2023-04-03T03:18:21;3.87;;;2.40;;
16766;SDS011;8501;49.926;8.404;2023-04-03T03:20:50;4.27;;;2.70;;
16766;SDS011;8501;49.926;8.404;2023-04-03T03:23:17;3.53;;;2.30;;
16766;SDS011;8501;49.926;8.404;2023-04-03T03:25:43;4.80;;;2.30;;
16766;SDS011;8501;49.926;8.404;2023-04-03T03:28:09;3.67;;;2.60;;
16766;SDS011;8501;49.926;8.404;2023-04-03T03:30:34;4.13;;;2.40;;
16766;SDS011;8501;49.926;8.404;2023-04-03T03:33:01;5.50;;;2.83;;
16766;SDS011;8501;49.926;8.404;2023-04-03T03:35:28;4.83;;;3.40;;
16766;SDS011;8501;49.926;8.404;2023-04-03T03:37:54;4.63;;;2.60;;
16766;SDS011;8501;49.926;8.404;2023-04-03T03:40:19;6.37;;;2.80;;
16766;SDS011;8501;49.926;8.404;2023-04-03T03:42:46;3.60;;;2.10;;
16766;SDS011;8501;49.926;8.404;2023-04-03T03:45:11;5.43;;;3.23;;
16766;SDS011;8501;49.926;8.404;2023-04-03T03:47:37;4.10;;;2.13;;
16766;SDS011;8501;49.926;8.404;2023-04-03T03:50:02;4.57;;;2.47;;
16766;SDS011;8501;49.926;8.404;2023-04-03T03:52:28;2.90;;;2.27;;
16766;SDS011;8501;49.926;8.404;2023-04-03T03:54:55;4.23;;;2.40;;
16766;SDS011;8501;49.926;8.404;2023-04-03T03:57:21;4.23;;;2.20;;
16766;SDS011;8501;49.926;8.404;2023-04-03T03:59:46;5.13;;;2.37;;
16766;SDS011;8501;49.926;8.404;2023-04-03T04:02:13;4.10;;;2.30;;
16766;SDS011;8501;49.926;8.404;2023-04-03T04:04:39;4.10;;;2.40;;
16766;SDS011;8501;49.926;8.404;2023-04-03T04:07:05;5.10;;;2.60;;
16766;SDS011;8501;49.926;8.404;2023-04-03T04:09:30;4.03;;;2.43;;
16766;SDS011;8501;49.926;8.404;2023-04-03T04:11:56;3.23;;;2.67;;
16766;SDS011;8501;49.926;8.404;2023-04-03T04:14:21;5.07;;;2.60;;
16766;SDS011;8501;49.926;8.404;2023-04-03T04:16:47;3.53;;;2.43;;
16766;SDS011;8501;49.926;8.404;2023-04-03T04:19:13;5.87;;;2.50;;
16766;SDS011;8501;49.926;8.404;2023-04-03T04:21:39;3.97;;;2.40;;
16766;SDS011;8501;49.926;8.404;2023-04-03T04:24:06;5.03;;;2.63;;
16766;SDS011;8501;49.926;8.404;2023-04-03T04:26:32;4.40;;;2.50;;
16766;SDS011;8501;49.926;8.404;2023-04-03T04:28:57;4.63;;;2.30;;
16766;SDS011;8501;49.926;8.404;2023-04-03T04:31:23;4.67;;;2.13;;
16766;SDS011;8501;49.926;8.404;2023-04-03T04:33:49;3.47;;;2.00;;
16766;SDS011;8501;49.926;8.404;2023-04-03T04:36:15;3.93;;;2.20;;
16766;SDS011;8501;49.926;8.404;2023-04-03T04:38:41;4.73;;;2.23;;
16766;SDS011;8501;49.926;8.404;2023-04-03T04:41:07;6.07;;;2.50;;
16766;SDS011;8501;49.926;8.404;2023-04-03T04:43:32;7.87;;;2.97;;
16766;SDS011;8501;49.926;8.404;2023-04-03T04:46:05;5.53;;;2.80;;
16766;SDS011;8501;49.926;8.404;2023-04-03T04:48:32;3.83;;;2.60;;
16766;SDS011;8501;49.926;8.404;2023-04-03T04:50:59;5.27;;;2.53;;
16766;SDS011;8501;49.926;8.404;2023-04-03T04:53:24;4.57;;;2.40;;
16766;SDS011;8501;49.926;8.404;2023-04-03T04:55:50;5.00;;;1.83;;
16766;SDS011;8501;49.926;8.404;2023-04-03T04:58:16;5.70;;;2.37;;
16766;SDS011;8501;49.926;8.404;2023-04-03T05:00:42;4.97;;;2.43;;
16766;SDS011;8501;49.926;8.404;2023-04-03T05:03:07;4.97;;;2.00;;
16766;SDS011;8501;49.926;8.404;2023-04-03T05:05:33;4.27;;;2.40;;
16766;SDS011;8501;49.926;8.404;2023-04-03T05:07:59;7.33;;;2.40;;
16766;SDS011;8501;49.926;8.404;2023-04-03T05:10:24;5.43;;;2.40;;
16766;SDS011;8501;49.926;8.404;2023-04-03T05:12:50;4.30;;;2.10;;
16766;SDS011;8501;49.926;8.404;2023-04-03T05:15:16;6.93;;;2.60;;
16766;SDS011;8501;49.926;8.404;2023-04-03T05:17:42;5.53;;;2.30;;
16766;SDS011;8501;49.926;8.404;2023-04-03T05:20:08;5.23;;;2.43;;
16766;SDS011;8501;49.926;8.404;2023-04-03T05:22:34;6.00;;;2.13;;
16766;SDS011;8501;49.926;8.404;2023-04-03T05:25:00;5.57;;;2.17;;
16766;SDS011;8501;49.926;8.404;2023-04-03T05:27:25;6.47;;;2.20;;
16766;SDS011;8501;49.926;8.404;2023-04-03T05:29:53;7.23;;;2.47;;
16766;SDS011;8501;49.926;8.404;2023-04-03T05:32:20;7.83;;;2.90;;
16766;SDS011;8501;49.926;8.404;2023-04-03T05:34:46;8.07;;;2.80;;
16766;SDS011;8501;49.926;8.404;2023-04-03T05:37:11;6.73;;;2.93;;
16766;SDS011;8501;49.926;8.404;2023-04-03T05:39:37;6.67;;;3.00;;
16766;SDS011;8501;49.926;8.404;2023-04-03T05:42:05;11.23;;;2.50;;
16766;SDS011;8501;49.926;8.404;2023-04-03T05:44:31;6.77;;;2.40;;
16766;SDS011;8501;49.926;8.404;2023-04-03T05:46:56;5.50;;;2.47;;
16766;SDS011;8501;49.926;8.404;2023-04-03T05:49:22;7.53;;;2.80;;
16766;SDS011;8501;49.926;8.404;2023-04-03T05:51:48;5.40;;;2.90;;
16766;SDS011;8501;49.926;8.404;2023-04-03T05:54:34;4.00;;;2.40;;
16766;SDS011;8501;49.926;8.404;2023-04-03T05:56:59;5.20;;;2.60;;
16766;SDS011;8501;49.926;8.404;2023-04-03T05:59:25;7.67;;;3.33;;
16766;SDS011;8501;49.926;8.404;2023-04-03T06:01:51;5.87;;;3.00;;
16766;SDS011;8501;49.926;8.404;2023-04-03T06:04:17;6.33;;;3.00;;
16766;SDS011;8501;49.926;8.404;2023-04-03T06:06:53;5.23;;;3.17;;
16766;SDS011;8501;49.926;8.404;2023-04-03T06:09:23;7.00;;;2.60;;
16766;SDS011;8501;49.926;8.404;2023-04-03T06:11:51;7.07;;;2.50;;
16766;SDS011;8501;49.926;8.404;2023-04-03T06:14:17;5.50;;;2.90;;
16766;SDS011;8501;49.926;8.404;2023-04-03T06:16:43;6.67;;;2.70;;
16766;SDS011;8501;49.926;8.404;2023-04-03T06:19:10;3.93;;;2.50;;
16766;SDS011;8501;49.926;8.404;2023-04-03T06:21:37;5.90;;;2.70;;
16766;SDS011;8501;49.926;8.404;2023-04-03T06:24:06;5.37;;;3.00;;
16766;SDS011;8501;49.926;8.404;2023-04-03T06:26:32;7.03;;;2.90;;
16766;SDS011;8501;49.926;8.404;2023-04-03T06:28:58;7.20;;;2.73;;
16766;SDS011;8501;49.926;8.404;2023-04-03T06:31:24;5.77;;;3.03;;
16766;SDS011;8501;49.926;8.404;2023-04-03T06:33:50;5.67;;;2.77;;
16766;SDS011;8501;49.926;8.404;2023-04-03T06:36:17;9.07;;;3.80;;
16766;SDS011;8501;49.926;8.404;2023-04-03T06:38:45;6.03;;;3.77;;
16766;SDS011;8501;49.926;8.404;2023-04-03T06:41:11;7.17;;;3.63;;
16766;SDS011;8501;49.926;8.404;2023-04-03T06:43:36;8.90;;;2.87;;
16766;SDS011;8501;49.926;8.404;2023-04-03T06:46:02;6.27;;;3.17;;
16766;SDS011;8501;49.926;8.404;2023-04-03T06:48:28;5.40;;;2.60;;
16766;SDS011;8501;49.926;8.404;2023-04-03T06:50:54;9.43;;;3.40;;
16766;SDS011;8501;49.926;8.404;2023-04-03T06:53:20;6.37;;;3.10;;
16766;SDS011;8501;49.926;8.404;2023-04-03T06:55:46;7.70;;;3.20;;
16766;SDS011;8501;49.926;8.404;2023-04-03T06:58:12;8.40;;;3.40;;
16766;SDS011;8501;49.926;8.404;2023-04-03T07:00:40;7.30;;;3.43;;
16766;SDS011;8501;49.926;8.404;2023-04-03T07:03:06;5.63;;;3.10;;
16766;SDS011;8501;49.926;8.404;2023-04-03T07:05:31;4.77;;;2.90;;
16766;SDS011;8501;49.926;8.404;2023-04-03T07:07:57;7.00;;;3.40;;
16766;SDS011;8501;49.926;8.404;2023-04-03T07:10:23;6.90;;;3.70;;
16766;SDS011;8501;49.926;8.404;2023-04-03T07:12:48;8.80;;;3.30;;
16766;SDS011;8501;49.926;8.404;2023-04-03T07:15:14;5.97;;;3.00;;
16766;SDS011;8501;49.926;8.404;2023-04-03T07:17:40;5.13;;;2.87;;
16766;SDS011;8501;49.926;8.404;2023-04-03T07:20:05;5.93;;;3.07;;
16766;SDS011;8501;49.926;8.404;2023-04-03T07:22:32;8.57;;;3.33;;
16766;SDS011;8501;49.926;8.404;2023-04-03T07:24:57;6.83;;;3.80;;
16766;SDS011;8501;49.926;8.404;2023-04-03T07:27:24;5.67;;;3.13;;
16766;SDS011;8501;49.926;8.404;2023-04-03T07:29:50;5.73;;;2.90;;
16766;SDS011;8501;49.926;8.404;2023-04-03T07:32:16;5.20;;;2.90;;
16766;SDS011;8501;49.926;8.404;2023-04-03T07:34:42;5.87;;;3.17;;
16766;SDS011;8501;49.926;8.404;2023-04-03T07:37:08;7.00;;;3.57;;
16766;SDS011;8501;49.926;8.404;2023-04-03T07:39:34;7.07;;;3.70;;
16766;SDS011;8501;49.926;8.404;2023-04-03T07:41:59;7.73;;;3.80;;
16766;SDS011;8501;49.926;8.404;2023-04-03T07:44:25;9.87;;;3.80;;
16766;SDS011;8501;49.926;8.404;2023-04-03T07:46:51;8.13;;;3.23;;
16766;SDS011;8501;49.926;8.404;2023-04-03T07:49:17;8.73;;;3.53;;
16766;SDS011;8501;49.926;8.404;2023-04-03T07:51:48;7.33;;;3.50;;
16766;SDS011;8501;49.926;8.404;2023-04-03T07:54:13;6.07;;;3.67;;
16766;SDS011;8501;49.926;8.404;2023-04-03T07:56:40;6.13;;;3.23;;
16766;SDS011;8501;49.926;8.404;2023-04-03T07:59:07;7.87;;;3.73;;
16766;SDS011;8501;49.926;8.404;2023-04-03T08:01:33;5.80;;;3.33;;
16766;SDS011;8501;49.926;8.404;2023-04-03T08:03:59;6.33;;;3.30;;
16766;SDS011;8501;49.926;8.404;2023-04-03T08:06:24;5.47;;;3.27;;
16766;SDS011;8501;49.926;8.404;2023-04-03T08:08:50;5.33;;;3.20;;
16766;SDS011;8501;49.926;8.404;2023-04-03T08:11:16;6.57;;;3.57;;
16766;SDS011;8501;49.926;8.404;2023-04-03T08:13:43;6.47;;;2.90;;
16766;SDS011;8501;49.926;8.404;2023-04-03T08:16:10;5.20;;;2.70;;
16766;SDS011;8501;49.926;8.404;2023-04-03T08:18:38;5.83;;;3.20;;
16766;SDS011;8501;49.926;8.404;2023-04-03T08:21:05;4.80;;;3.10;;
16766;SDS011;8501;49.926;8.404;2023-04-03T08:23:32;7.90;;;3.60;;
16766;SDS011;8501;49.926;8.404;2023-04-03T08:25:57;9.80;;;3.40;;
16766;SDS011;8501;49.926;8.404;2023-04-03T08:28:23;6.00;;;3.20;;
16766;SDS011;8501;49.926;8.404;2023-04-03T08:30:48;6.43;;;3.70;;
16766;SDS011;8501;49.926;8.404;2023-04-03T08:33:14;5.80;;;3.00;;
16766;SDS011;8501;49.926;8.404;2023-04-03T08:35:40;4.80;;;2.70;;
16766;SDS011;8501;49.926;8.404;2023-04-03T08:38:07;6.17;;;3.30;;
16766;SDS011;8501;49.926;8.404;2023-04-03T08:40:34;5.90;;;2.73;;
16766;SDS011;8501;49.926;8.404;2023-04-03T08:43:04;6.80;;;2.97;;
16766;SDS011;8501;49.926;8.404;2023-04-03T08:45:55;7.03;;;3.10;;
16766;SDS011;8501;49.926;8.404;2023-04-03T08:48:35;6.53;;;2.90;;
16766;SDS011;8501;49.926;8.404;2023-04-03T08:51:04;6.87;;;2.80;;
16766;SDS011;8501;49.926;8.404;2023-04-03T08:53:40;6.70;;;3.10;;
16766;SDS011;8501;49.926;8.404;2023-04-03T08:56:21;6.30;;;2.77;;
16766;SDS011;8501;49.926;8.404;2023-04-03T08:58:55;5.63;;;2.80;;
16766;SDS011;8501;49.926;8.404;2023-04-03T09:01:24;5.53;;;3.03;;
16766;SDS011;8501;49.926;8.404;2023-04-03T09:03:54;7.03;;;3.00;;
16766;SDS011;8501;49.926;8.404;2023-04-03T09:06:21;7.80;;;2.90;;
16766;SDS011;8501;49.926;8.404;2023-04-03T09:08:51;5.03;;;3.13;;
16766;SDS011;8501;49.926;8.404;2023-04-03T09:19:28;7.27;;;2.67;;
16766;SDS011;8501;49.926;8.404;2023-04-03T09:22:26;6.13;;;2.50;;
16766;SDS011;8501;49.926;8.404;2023-04-03T09:27:24;7.30;;;2.87;;
16766;SDS011;8501;49.926;8.404;2023-04-03T09:29:49;5.60;;;2.37;;
16766;SDS011;8501;49.926;8.404;2023-04-03T09:32:27;3.90;;;2.30;;
16766;SDS011;8501;49.926;8.404;2023-04-03T09:35:17;6.37;;;2.60;;
16766;SDS011;8501;49.926;8.404;2023-04-03T09:37:50;5.80;;;2.40;;
16766;SDS011;8501;49.926;8.404;2023-04-03T09:43:23;4.17;;;2.60;;
16766;SDS011;8501;49.926;8.404;2023-04-03T09:45:51;5.20;;;2.33;;
16766;SDS011;8501;49.926;8.404;2023-04-03T09:48:19;7.23;;;2.63;;
16766;SDS011;8501;49.926;8.404;2023-04-03T09:56:19;6.67;;;2.33;;
16766;SDS011;8501;49.926;8.404;2023-04-03T10:01:33;6.63;;;2.77;;
16766;SDS011;8501;49.926;8.404;2023-04-03T10:06:46;3.20;;;2.20;;
16766;SDS011;8501;49.926;8.404;2023-04-03T10:11:58;6.10;;;2.73;;
16766;SDS011;8501;49.926;8.404;2023-04-03T10:14:25;4.77;;;2.73;;
16766;SDS011;8501;49.926;8.404;2023-04-03T10:22:28;4.27;;;2.70;;
16766;SDS011;8501;49.926;8.404;2023-04-03T10:27:55;5.27;;;3.20;;
16766;SDS011;8501;49.926;8.404;2023-04-03T10:36:14;8.53;;;2.90;;
16766;SDS011;8501;49.926;8.404;2023-04-03T10:39:06;5.27;;;2.80;;
16766;SDS011;8501;49.926;8.404;2023-04-03T10:41:39;4.60;;;2.80;;
16766;SDS011;8501;49.926;8.404;2023-04-03T10:44:36;4.10;;;2.87;;
16766;SDS011;8501;49.926;8.404;2023-04-03T10:53:24;4.97;;;3.10;;
16766;SDS011;8501;49.926;8.404;2023-04-03T10:57:52;5.07;;;3.13;;
16766;SDS011;8501;49.926;8.404;2023-04-03T11:00:22;6.50;;;3.10;;
16766;SDS011;8501;49.926;8.404;2023-04-03T11:02:56;4.83;;;2.90;;
16766;SDS011;8501;49.926;8.404;2023-04-03T11:08:03;4.00;;;2.80;;
16766;SDS011;8501;49.926;8.404;2023-04-03T11:10:51;5.27;;;2.80;;
16766;SDS011;8501;49.926;8.404;2023-04-03T11:13:33;4.27;;;2.63;;
16766;SDS011;8501;49.926;8.404;2023-04-03T11:16:22;5.73;;;3.00;;
16766;SDS011;8501;49.926;8.404;2023-04-03T11:21:36;4.17;;;2.60;;
16766;SDS011;8501;49.926;8.404;2023-04-03T11:24:09;4.93;;;3.10;;
16766;SDS011;8501;49.926;8.404;2023-04-03T11:26:45;7.80;;;2.97;;
16766;SDS011;8501;49.926;8.404;2023-04-03T11:29:14;4.50;;;2.70;;
16766;SDS011;8501;49.926;8.404;2023-04-03T11:32:01;4.93;;;2.83;;
16766;SDS011;8501;49.926;8.404;2023-04-03T11:37:24;4.03;;;2.67;;
16766;SDS011;8501;49.926;8.404;2023-04-03T11:42:40;4.07;;;2.90;;
16766;SDS011;8501;49.926;8.404;2023-04-03T11:47:55;4.23;;;3.10;;
16766;SDS011;8501;49.926;8.404;2023-04-03T11:50:39;4.67;;;2.80;;
16766;SDS011;8501;49.926;8.404;2023-04-03T12:05:57;4.83;;;2.93;;
16766;SDS011;8501;49.926;8.404;2023-04-03T12:16:03;3.70;;;2.27;;
16766;SDS011;8501;49.926;8.404;2023-04-03T12:21:07;3.47;;;2.20;;
16766;SDS011;8501;49.926;8.404;2023-04-03T12:23:35;4.17;;;2.77;;
16766;SDS011;8501;49.926;8.404;2023-04-03T12:28:50;4.70;;;2.60;;
16766;SDS011;8501;49.926;8.404;2023-04-03T12:31:18;5.60;;;3.10;;
16766;SDS011;8501;49.926;8.404;2023-04-03T12:36:29;4.83;;;2.80;;
16766;SDS011;8501;49.926;8.404;2023-04-03T12:39:17;4.90;;;2.80;;
16766;SDS011;8501;49.926;8.404;2023-04-03T12:42:04;4.20;;;3.03;;
16766;SDS011;8501;49.926;8.404;2023-04-03T12:44:58;4.87;;;3.00;;
16766;SDS011;8501;49.926;8.404;2023-04-03T12:47:35;3.77;;;2.50;;
16766;SDS011;8501;49.926;8.404;2023-04-03T12:50:04;4.60;;;3.77;;
16766;SDS011;8501;49.926;8.404;2023-04-03T12:52:44;4.43;;;2.93;;
16766;SDS011;8501;49.926;8.404;2023-04-03T12:55:16;3.80;;;2.77;;
16766;SDS011;8501;49.926;8.404;2023-04-03T12:57:43;6.13;;;3.10;;
16766;SDS011;8501;49.926;8.404;2023-04-03T13:03:05;4.63;;;2.90;;
16766;SDS011;8501;49.926;8.404;2023-04-03T13:05:44;4.27;;;3.00;;
16766;SDS011;8501;49.926;8.404;2023-04-03T13:08:11;5.13;;;2.70;;
16766;SDS011;8501;49.926;8.404;2023-04-03T13:10:43;8.03;;;4.27;;
16766;SDS011;8501;49.926;8.404;2023-04-03T13:13:17;4.70;;;2.90;;
16766;SDS011;8501;49.926;8.404;2023-04-03T13:15:43;6.37;;;3.10;;
16766;SDS011;8501;49.926;8.404;2023-04-03T13:18:24;6.57;;;3.47;;
16766;SDS011;8501;49.926;8.404;2023-04-03T13:23:31;4.80;;;3.33;;
16766;SDS011;8501;49.926;8.404;2023-04-03T13:25:59;4.53;;;3.00;;
16766;SDS011;8501;49.926;8.404;2023-04-03T13:28:28;5.23;;;3.60;;
16766;SDS011;8501;49.926;8.404;2023-04-03T13:31:05;4.13;;;3.43;;
16766;SDS011;8501;49.926;8.404;2023-04-03T13:33:38;5.37;;;3.10;;
16766;SDS011;8501;49.926;8.404;2023-04-03T13:36:18;5.50;;;3.47;;
16766;SDS011;8501;49.926;8.404;2023-04-03T13:38:46;4.53;;;3.20;;
16766;SDS011;8501;49.926;8.404;2023-04-03T13:41:39;6.80;;;3.87;;
16766;SDS011;8501;49.926;8.404;2023-04-03T13:46:55;4.13;;;3.23;;
16766;SDS011;8501;49.926;8.404;2023-04-03T13:49:37;5.63;;;3.20;;
16766;SDS011;8501;49.926;8.404;2023-04-03T13:52:22;3.13;;;2.83;;
16766;SDS011;8501;49.926;8.404;2023-04-03T13:55:15;4.63;;;2.97;;
16766;SDS011;8501;49.926;8.404;2023-04-03T13:57:51;4.60;;;2.90;;
16766;SDS011;8501;49.926;8.404;2023-04-03T14:02:59;5.83;;;3.30;;
16766;SDS011;8501;49.926;8.404;2023-04-03T14:05:25;3.60;;;3.07;;
16766;SDS011;8501;49.926;8.404;2023-04-03T14:07:52;4.43;;;2.67;;
16766;SDS011;8501;49.926;8.404;2023-04-03T14:10:19;4.77;;;3.00;;
16766;SDS011;8501;49.926;8.404;2023-04-03T14:12:45;5.27;;;3.10;;
16766;SDS011;8501;49.926;8.404;2023-04-03T14:15:15;6.17;;;3.00;;
16766;SDS011;8501;49.926;8.404;2023-04-03T14:17:44;4.80;;;3.00;;
16766;SDS011;8501;49.926;8.404;2023-04-03T14:20:14;4.30;;;2.90;;
16766;SDS011;8501;49.926;8.404;2023-04-03T14:22:43;4.23;;;2.90;;
16766;SDS011;8501;49.926;8.404;2023-04-03T14:25:09;5.83;;;3.47;;
16766;SDS011;8501;49.926;8.404;2023-04-03T14:27:36;4.57;;;3.27;;
16766;SDS011;8501;49.926;8.404;2023-04-03T14:30:09;5.17;;;2.90;;
16766;SDS011;8501;49.926;8.404;2023-04-03T14:32:40;4.80;;;3.07;;
16766;SDS011;8501;49.926;8.404;2023-04-03T14:35:06;6.57;;;3.10;;
16766;SDS011;8501;49.926;8.404;2023-04-03T14:37:32;6.67;;;3.10;;
16766;SDS011;8501;49.926;8.404;2023-04-03T14:39:58;5.40;;;3.30;;
16766;SDS011;8501;49.926;8.404;2023-04-03T14:42:28;5.40;;;3.10;;
16766;SDS011;8501;49.926;8.404;2023-04-03T14:44:56;4.60;;;2.80;;
16766;SDS011;8501;49.926;8.404;2023-04-03T14:47:24;4.80;;;3.07;;
16766;SDS011;8501;49.926;8.404;2023-04-03T14:49:52;4.87;;;2.90;;
16766;SDS011;8501;49.926;8.404;2023-04-03T14:52:20;4.83;;;3.20;;
16766;SDS011;8501;49.926;8.404;2023-04-03T14:54:51;7.03;;;3.47;;
16766;SDS011;8501;49.926;8.404;2023-04-03T14:57:18;6.37;;;3.30;;
16766;SDS011;8501;49.926;8.404;2023-04-03T14:59:44;6.50;;;3.40;;
16766;SDS011;8501;49.926;8.404;2023-04-03T15:02:23;7.65;;;3.67;;
16766;SDS011;8501;49.926;8.404;2023-04-03T15:04:53;5.22;;;3.50;;
16766;SDS011;8501;49.926;8.404;2023-04-03T15:07:19;5.47;;;3.40;;
16766;SDS011;8501;49.926;8.404;2023-04-03T15:09:45;5.65;;;3.58;;
16766;SDS011;8501;49.926;8.404;2023-04-03T15:12:10;4.93;;;3.10;;
16766;SDS011;8501;49.926;8.404;2023-04-03T15:14:36;5.37;;;3.23;;
16766;SDS011;8501;49.926;8.404;2023-04-03T15:17:02;3.90;;;2.90;;
16766;SDS011;8501;49.926;8.404;2023-04-03T15:19:28;4.93;;;3.10;;
16766;SDS011;8501;49.926;8.404;2023-04-03T15:21:56;5.47;;;2.70;;
16766;SDS011;8501;49.926;8.404;2023-04-03T15:24:21;4.77;;;3.10;;
16766;SDS011;8501;49.926;8.404;2023-04-03T15:26:47;5.53;;;3.20;;
16766;SDS011;8501;49.926;8.404;2023-04-03T15:29:12;6.27;;;3.30;;
16766;SDS011;8501;49.926;8.404;2023-04-03T15:31:38;5.83;;;2.90;;
16766;SDS011;8501;49.926;8.404;2023-04-03T15:34:03;4.07;;;2.60;;
16766;SDS011;8501;49.926;8.404;2023-04-03T15:36:29;3.60;;;2.23;;
16766;SDS011;8501;49.926;8.404;2023-04-03T15:38:54;4.87;;;2.63;;
16766;SDS011;8501;49.926;8.404;2023-04-03T15:41:20;4.00;;;2.43;;
16766;SDS011;8501;49.926;8.404;2023-04-03T15:43:46;3.00;;;2.50;;
16766;SDS011;8501;49.926;8.404;2023-04-03T15:46:11;4.73;;;2.53;;
16766;SDS011;8501;49.926;8.404;2023-04-03T15:48:38;6.10;;;2.50;;
16766;SDS011;8501;49.926;8.404;2023-04-03T15:51:04;3.53;;;2.57;;
16766;SDS011;8501;49.926;8.404;2023-04-03T15:53:31;3.83;;;2.40;;
16766;SDS011;8501;49.926;8.404;2023-04-03T15:55:56;2.97;;;2.20;;
16766;SDS011;8501;49.926;8.404;2023-04-03T15:58:22;5.37;;;2.67;;
16766;SDS011;8501;49.926;8.404;2023-04-03T16:00:47;4.10;;;2.47;;
16766;SDS011;8501;49.926;8.404;2023-04-03T16:03:17;6.00;;;2.10;;
16766;SDS011;8501;49.926;8.404;2023-04-03T16:05:44;3.27;;;2.07;;
16766;SDS011;8501;49.926;8.404;2023-04-03T16:08:10;3.50;;;1.80;;
16766;SDS011;8501;49.926;8.404;2023-04-03T16:10:36;5.27;;;2.20;;
16766;SDS011;8501;49.926;8.404;2023-04-03T16:13:03;3.67;;;2.10;;
16766;SDS011;8501;49.926;8.404;2023-04-03T16:15:29;4.17;;;1.80;;
16766;SDS011;8501;49.926;8.404;2023-04-03T16:17:55;4.17;;;2.10;;
16766;SDS011;8501;49.926;8.404;2023-04-03T16:20:22;4.90;;;2.30;;
16766;SDS011;8501;49.926;8.404;2023-04-03T16:22:48;3.70;;;2.00;;
16766;SDS011;8501;49.926;8.404;2023-04-03T16:25:14;4.27;;;2.20;;
16766;SDS011;8501;49.926;8.404;2023-04-03T16:27:39;3.30;;;2.07;;
16766;SDS011;8501;49.926;8.404;2023-04-03T16:30:05;3.33;;;1.80;;
16766;SDS011;8501;49.926;8.404;2023-04-03T16:32:32;2.33;;;1.80;;
16766;SDS011;8501;49.926;8.404;2023-04-03T16:34:58;4.40;;;1.50;;
16766;SDS011;8501;49.926;8.404;2023-04-03T16:37:24;4.63;;;2.33;;
16766;SDS011;8501;49.926;8.404;2023-04-03T16:39:50;3.17;;;1.87;;
16766;SDS011;8501;49.926;8.404;2023-04-03T16:42:16;3.97;;;1.60;;
16766;SDS011;8501;49.926;8.404;2023-04-03T16:44:41;4.50;;;1.53;;
16766;SDS011;8501;49.926;8.404;2023-04-03T16:47:07;3.60;;;2.17;;
16766;SDS011;8501;49.926;8.404;2023-04-03T16:49:33;3.07;;;1.60;;
16766;SDS011;8501;49.926;8.404;2023-04-03T16:52:00;3.60;;;1.80;;
16766;SDS011;8501;49.926;8.404;2023-04-03T16:54:27;3.37;;;1.83;;